createdAt,value
2022-11-30T00:01:51.530Z,12.10
2022-11-30T00:04:19.552Z,16.20
2022-11-30T00:06:48.788Z,11.43
2022-11-30T00:09:16.694Z,15.98
2022-11-30T00:11:44.637Z,12.25
2022-11-30T00:14:12.539Z,16.90
2022-11-30T00:16:41.065Z,14.02
2022-11-30T00:19:09.028Z,16.58
2022-11-30T00:21:37.409Z,16.70
2022-11-30T00:24:08.083Z,14.55
2022-11-30T00:26:36.546Z,10.30
2022-11-30T00:29:05.115Z,18.50
2022-11-30T00:31:33.495Z,15.70
2022-11-30T00:34:01.456Z,14.18
2022-11-30T00:36:29.539Z,15.10
2022-11-30T00:38:57.586Z,13.73
2022-11-30T00:41:26.950Z,12.73
2022-11-30T00:43:54.877Z,16.25
2022-11-30T00:46:22.724Z,13.82
2022-11-30T00:48:50.651Z,18.08
2022-11-30T00:51:20.340Z,10.63
2022-11-30T00:53:48.728Z,13.82
2022-11-30T00:56:16.999Z,9.18
2022-11-30T00:58:46.323Z,11.63
2022-11-30T01:01:14.321Z,12.18
2022-11-30T01:03:42.687Z,14.63
2022-11-30T01:06:11.713Z,10.05
2022-11-30T01:08:40.027Z,12.70
2022-11-30T01:11:10.459Z,12.75
2022-11-30T01:13:38.514Z,13.10
2022-11-30T01:16:12.603Z,9.40
2022-11-30T01:18:40.572Z,11.15
2022-11-30T01:21:11.089Z,11.35
2022-11-30T01:23:39.026Z,11.23
2022-11-30T01:26:07.567Z,11.27
2022-11-30T01:28:36.354Z,10.00
2022-11-30T01:31:06.178Z,9.48
2022-11-30T01:33:36.125Z,11.00
2022-11-30T01:36:06.564Z,16.30
2022-11-30T01:38:35.720Z,9.23
2022-11-30T01:41:04.735Z,9.18
2022-11-30T01:43:44.210Z,12.10
2022-11-30T01:46:33.449Z,10.00
2022-11-30T01:49:07.814Z,10.38
2022-11-30T01:54:09.666Z,8.75
2022-11-30T01:56:42.833Z,9.85
2022-11-30T01:59:12.052Z,12.43
2022-11-30T02:01:40.081Z,8.13
2022-11-30T02:04:12.815Z,11.38
2022-11-30T02:06:40.981Z,10.50
2022-11-30T02:09:09.413Z,9.88
2022-11-30T02:11:37.434Z,11.07
2022-11-30T02:14:17.002Z,10.82
2022-11-30T02:16:56.739Z,13.57
2022-11-30T02:20:17.369Z,8.65
2022-11-30T02:22:59.335Z,10.60
2022-11-30T02:25:37.694Z,8.48
2022-11-30T02:28:44.650Z,9.57
2022-11-30T02:31:17.932Z,8.35
2022-11-30T02:33:48.653Z,8.90
2022-11-30T02:36:17.927Z,11.90
2022-11-30T02:38:45.977Z,14.73
2022-11-30T02:41:14.293Z,8.88
2022-11-30T02:43:43.664Z,10.75
2022-11-30T02:46:20.237Z,7.57
2022-11-30T02:48:54.391Z,12.18
2022-11-30T02:51:26.260Z,12.43
2022-11-30T02:53:55.638Z,12.48
2022-11-30T02:56:24.518Z,9.23
2022-11-30T02:58:53.881Z,7.70
2022-11-30T03:01:22.209Z,12.32
2022-11-30T03:03:50.227Z,8.75
2022-11-30T03:06:18.334Z,11.38
2022-11-30T03:08:46.168Z,6.32
2022-11-30T03:11:14.094Z,10.45
2022-11-30T03:13:42.172Z,11.40
2022-11-30T03:16:13.904Z,9.75
2022-11-30T03:18:42.268Z,8.65
2022-11-30T03:21:12.161Z,12.82
2022-11-30T03:23:41.127Z,8.38
2022-11-30T03:26:10.408Z,10.30
2022-11-30T03:28:38.580Z,8.45
2022-11-30T03:31:07.140Z,13.80
2022-11-30T03:33:36.582Z,7.78
2022-11-30T03:36:06.971Z,7.72
2022-11-30T03:38:35.270Z,7.38
2022-11-30T03:41:04.867Z,6.82
2022-11-30T03:43:32.697Z,6.70
2022-11-30T03:46:01.352Z,8.27
2022-11-30T03:48:29.441Z,6.38
2022-11-30T03:50:58.911Z,8.10
2022-11-30T03:53:27.021Z,8.85
2022-11-30T03:55:56.569Z,7.57
2022-11-30T03:58:25.775Z,6.57
2022-11-30T04:01:00.368Z,7.30
2022-11-30T04:05:55.930Z,6.15
2022-11-30T04:08:25.296Z,4.25
2022-11-30T04:10:54.013Z,5.85
2022-11-30T04:13:23.113Z,6.72
2022-11-30T04:15:52.751Z,9.70
2022-11-30T04:18:22.158Z,6.38
2022-11-30T04:20:51.845Z,9.48
2022-11-30T04:23:20.618Z,8.00
2022-11-30T04:25:50.284Z,6.70
2022-11-30T04:28:19.284Z,8.98
2022-11-30T04:30:47.409Z,11.68
2022-11-30T04:33:17.494Z,7.57
2022-11-30T04:35:48.517Z,9.55
2022-11-30T04:38:16.715Z,9.73
2022-11-30T04:40:45.623Z,7.70
2022-11-30T04:43:15.321Z,7.75
2022-11-30T04:45:45.066Z,8.45
2022-11-30T04:48:13.079Z,6.88
2022-11-30T04:50:41.064Z,8.40
2022-11-30T04:53:09.648Z,15.95
2022-11-30T04:55:38.145Z,18.65
2022-11-30T04:58:05.931Z,16.00
2022-11-30T05:00:36.387Z,20.60
2022-11-30T05:03:04.920Z,16.88
2022-11-30T05:05:32.775Z,16.17
2022-11-30T05:08:01.080Z,14.35
2022-11-30T05:10:30.545Z,13.27
2022-11-30T05:12:58.651Z,15.50
2022-11-30T05:15:27.338Z,12.48
2022-11-30T05:17:59.832Z,11.85
2022-11-30T05:20:27.810Z,12.32
2022-11-30T05:22:55.827Z,12.05
2022-11-30T05:25:23.788Z,12.70
2022-11-30T05:27:51.691Z,18.48
2022-11-30T05:30:20.025Z,18.73
2022-11-30T05:32:48.275Z,16.75
2022-11-30T05:35:18.062Z,17.83
2022-11-30T05:37:46.569Z,16.70
2022-11-30T05:40:17.982Z,17.60
2022-11-30T05:42:45.898Z,17.13
2022-11-30T05:45:13.762Z,12.45
2022-11-30T05:47:43.275Z,13.57
2022-11-30T05:50:11.272Z,12.15
2022-11-30T05:52:40.509Z,11.00
2022-11-30T05:55:08.996Z,15.40
2022-11-30T05:57:37.649Z,14.70
2022-11-30T06:00:06.669Z,10.75
2022-11-30T06:02:39.521Z,14.07
2022-11-30T06:05:08.433Z,12.30
2022-11-30T06:07:38.474Z,15.48
2022-11-30T06:10:09.163Z,10.98
2022-11-30T06:12:36.904Z,10.88
2022-11-30T06:15:05.478Z,13.13
2022-11-30T06:17:33.430Z,12.20
2022-11-30T06:20:01.429Z,12.38
2022-11-30T06:22:29.473Z,10.00
2022-11-30T06:24:57.264Z,15.52
2022-11-30T06:27:26.677Z,11.90
2022-11-30T06:29:54.891Z,16.92
2022-11-30T06:32:22.761Z,15.68
2022-11-30T06:34:50.482Z,16.70
2022-11-30T06:37:18.326Z,12.52
2022-11-30T06:42:37.408Z,15.35
2022-11-30T06:45:07.084Z,14.27
2022-11-30T06:47:34.976Z,12.68
2022-11-30T06:50:03.224Z,15.93
2022-11-30T06:52:31.628Z,15.35
2022-11-30T06:54:59.623Z,11.50
2022-11-30T06:57:28.473Z,13.13
2022-11-30T06:59:58.121Z,22.15
2022-11-30T07:02:26.061Z,12.13
2022-11-30T07:04:54.093Z,17.58
2022-11-30T07:07:22.200Z,14.27
2022-11-30T07:09:50.810Z,11.15
2022-11-30T07:12:18.820Z,12.00
2022-11-30T07:14:47.070Z,10.75
2022-11-30T07:17:16.458Z,15.38
2022-11-30T07:19:44.235Z,25.52
2022-11-30T07:22:12.020Z,23.23
2022-11-30T07:24:57.194Z,21.20
2022-11-30T07:27:25.451Z,18.98
2022-11-30T07:29:53.717Z,19.45
2022-11-30T07:32:23.060Z,12.70
2022-11-30T07:34:50.973Z,15.02
2022-11-30T07:37:19.459Z,24.75
2022-11-30T07:39:47.411Z,16.67
2022-11-30T07:42:16.987Z,14.07
2022-11-30T07:44:45.080Z,22.30
2022-11-30T07:47:13.139Z,15.32
2022-11-30T07:49:42.281Z,14.85
2022-11-30T07:52:10.129Z,17.25
2022-11-30T07:54:37.880Z,24.10
2022-11-30T07:57:06.413Z,18.80
2022-11-30T07:59:34.359Z,20.73
2022-11-30T08:02:02.324Z,19.52
2022-11-30T08:04:30.231Z,21.73
2022-11-30T08:06:59.422Z,13.50
2022-11-30T08:09:27.256Z,17.75
2022-11-30T08:11:55.068Z,16.25
2022-11-30T08:14:22.810Z,16.77
2022-11-30T08:16:51.858Z,16.67
2022-11-30T08:19:20.057Z,16.58
2022-11-30T08:21:47.914Z,15.63
2022-11-30T08:24:17.309Z,11.25
2022-11-30T08:26:45.463Z,14.40
2022-11-30T08:29:13.406Z,29.90
2022-11-30T08:31:41.179Z,13.00
2022-11-30T08:34:12.817Z,19.30
2022-11-30T08:36:41.729Z,16.13
2022-11-30T08:39:12.343Z,15.30
2022-11-30T08:41:41.587Z,12.27
2022-11-30T08:44:09.795Z,22.02
2022-11-30T08:46:53.915Z,18.80
2022-11-30T08:49:23.911Z,11.38
2022-11-30T08:54:45.523Z,14.32
2022-11-30T08:57:15.212Z,22.95
2022-11-30T08:59:43.043Z,14.43
2022-11-30T09:02:12.259Z,13.57
2022-11-30T09:04:40.365Z,10.55
2022-11-30T09:07:09.493Z,13.38
2022-11-30T09:09:37.767Z,15.55
2022-11-30T09:12:05.917Z,20.92
2022-11-30T09:14:35.393Z,18.70
2022-11-30T09:17:03.319Z,18.95
2022-11-30T09:19:31.270Z,12.35
2022-11-30T09:21:59.200Z,15.55
2022-11-30T09:24:26.933Z,17.75
2022-11-30T09:26:57.569Z,22.45
2022-11-30T09:29:25.485Z,15.25
2022-11-30T09:31:54.676Z,21.63
2022-11-30T09:34:22.729Z,19.15
2022-11-30T09:36:50.490Z,13.80
2022-11-30T09:39:18.279Z,14.30
2022-11-30T09:42:04.418Z,13.68
2022-11-30T09:44:45.161Z,14.90
2022-11-30T09:47:36.040Z,29.70
2022-11-30T09:50:11.639Z,31.00
2022-11-30T09:52:44.227Z,27.98
2022-11-30T09:55:18.685Z,36.22
2022-11-30T09:57:48.380Z,17.40
2022-11-30T10:00:19.132Z,20.08
2022-11-30T10:02:50.555Z,19.02
2022-11-30T10:05:21.597Z,33.85
2022-11-30T10:08:12.178Z,19.35
2022-11-30T10:10:42.081Z,17.90
2022-11-30T10:13:39.290Z,23.05
2022-11-30T10:16:18.201Z,35.15
2022-11-30T10:19:00.218Z,27.25
2022-11-30T10:21:40.968Z,15.57
2022-11-30T10:24:23.288Z,23.77
2022-11-30T10:26:55.614Z,19.27
2022-11-30T10:29:31.467Z,16.67
2022-11-30T10:32:01.213Z,22.75
2022-11-30T10:34:35.642Z,21.55
2022-11-30T10:37:11.106Z,23.63
2022-11-30T10:39:44.826Z,22.23
2022-11-30T10:42:17.422Z,19.60
2022-11-30T10:44:54.082Z,20.50
2022-11-30T10:47:27.178Z,35.17
2022-11-30T10:49:56.358Z,33.78
2022-11-30T10:52:27.285Z,31.83
2022-11-30T10:55:04.295Z,33.88
2022-11-30T10:57:34.114Z,22.65
2022-11-30T11:00:06.630Z,38.35
2022-11-30T11:02:41.618Z,39.53
2022-11-30T11:05:22.773Z,29.98
2022-11-30T11:07:55.233Z,37.58
2022-11-30T11:10:29.356Z,25.55
2022-11-30T11:12:57.727Z,45.33
2022-11-30T11:15:27.270Z,27.90
2022-11-30T11:18:12.532Z,24.55
2022-11-30T11:20:43.361Z,39.25
2022-11-30T11:23:23.755Z,29.80
2022-11-30T11:25:53.227Z,25.73
2022-11-30T11:28:22.961Z,24.13
2022-11-30T11:30:53.844Z,23.95
2022-11-30T11:33:24.512Z,23.50
2022-11-30T11:35:56.165Z,36.10
2022-11-30T11:38:28.253Z,37.35
2022-11-30T11:40:58.790Z,23.13
2022-11-30T11:43:29.214Z,25.60
2022-11-30T11:46:02.071Z,20.60
2022-11-30T11:48:39.310Z,26.35
2022-11-30T11:51:11.070Z,45.58
2022-11-30T11:53:50.050Z,34.10
2022-11-30T11:56:26.468Z,32.15
2022-11-30T11:58:59.775Z,29.35
2022-11-30T12:01:50.211Z,28.98
2022-11-30T12:04:33.112Z,45.47
2022-11-30T12:07:12.570Z,30.88
2022-11-30T12:09:55.359Z,25.48
2022-11-30T12:12:23.221Z,40.40
2022-11-30T12:14:51.090Z,32.75
2022-11-30T12:17:40.293Z,32.95
2022-11-30T12:20:23.660Z,47.30
2022-11-30T12:23:09.807Z,24.10
2022-11-30T12:25:41.829Z,23.60
2022-11-30T12:28:21.891Z,35.10
2022-11-30T12:31:04.712Z,26.95
2022-11-30T12:33:47.522Z,23.20
2022-11-30T12:36:25.577Z,26.10
2022-11-30T12:39:01.103Z,23.70
2022-11-30T12:41:37.499Z,31.65
2022-11-30T12:44:41.779Z,22.60
2022-11-30T12:47:26.714Z,22.60
2022-11-30T12:50:09.993Z,30.30
2022-11-30T12:52:49.599Z,38.60
2022-11-30T12:55:31.630Z,36.83
2022-11-30T12:58:09.079Z,36.05
2022-11-30T13:00:46.873Z,19.80
2022-11-30T13:03:42.644Z,28.77
2022-11-30T13:06:15.646Z,27.38
2022-11-30T13:08:58.149Z,35.15
2022-11-30T13:11:33.235Z,25.45
2022-11-30T13:14:01.967Z,22.67
2022-11-30T13:16:32.489Z,16.27
2022-11-30T13:19:09.439Z,18.52
2022-11-30T13:21:43.053Z,26.00
2022-11-30T13:24:17.619Z,19.27
2022-11-30T13:26:53.029Z,23.23
2022-11-30T13:29:37.054Z,35.67
2022-11-30T13:32:27.534Z,32.25
2022-11-30T13:35:46.429Z,31.95
2022-11-30T13:38:36.406Z,21.67
2022-11-30T13:41:07.118Z,31.23
2022-11-30T13:43:41.785Z,24.67
2022-11-30T13:46:16.619Z,39.80
2022-11-30T13:48:46.039Z,22.02
2022-11-30T13:51:15.046Z,21.73
2022-11-30T13:53:43.186Z,46.38
2022-11-30T13:56:35.387Z,33.40
2022-11-30T13:59:41.350Z,22.95
2022-11-30T14:02:59.128Z,19.88
2022-11-30T14:05:38.113Z,29.80
2022-11-30T14:08:32.634Z,26.00
2022-11-30T14:11:34.121Z,23.63
2022-11-30T14:14:38.447Z,20.17
2022-11-30T14:17:19.590Z,21.85
2022-11-30T14:19:51.803Z,20.58
2022-11-30T14:22:20.166Z,18.88
2022-11-30T14:24:49.905Z,16.35
2022-11-30T14:27:22.646Z,17.63
2022-11-30T14:29:53.769Z,30.52
2022-11-30T14:32:34.972Z,24.02
2022-11-30T14:35:09.317Z,21.23
2022-11-30T14:40:11.962Z,13.30
2022-11-30T14:42:49.313Z,13.90
2022-11-30T14:45:20.924Z,13.27
2022-11-30T14:47:52.578Z,10.23
2022-11-30T14:50:24.281Z,19.58
2022-11-30T14:53:17.856Z,17.25
2022-11-30T14:55:51.728Z,10.93
2022-11-30T14:58:29.708Z,8.93
2022-11-30T15:00:59.412Z,16.20
2022-11-30T15:03:34.616Z,11.88
2022-11-30T15:06:06.837Z,14.70
2022-11-30T15:08:38.232Z,21.15
2022-11-30T15:11:08.383Z,12.88
2022-11-30T15:13:40.536Z,16.17
2022-11-30T15:16:17.751Z,17.15
2022-11-30T15:18:47.702Z,12.80
2022-11-30T15:21:19.953Z,16.33
2022-11-30T15:23:51.223Z,16.98
2022-11-30T15:26:23.785Z,23.38
2022-11-30T15:28:57.523Z,22.65
2022-11-30T15:31:26.924Z,13.60
2022-11-30T15:33:56.222Z,25.42
2022-11-30T15:36:32.841Z,20.75
2022-11-30T15:39:04.713Z,24.65
2022-11-30T15:41:34.386Z,15.82
2022-11-30T15:44:03.140Z,21.73
2022-11-30T15:46:34.840Z,23.60
2022-11-30T15:49:18.190Z,28.27
2022-11-30T15:51:54.507Z,28.35
2022-11-30T15:54:47.558Z,25.52
2022-11-30T15:57:15.937Z,27.90
2022-11-30T15:59:44.362Z,31.92
2022-11-30T16:02:27.892Z,29.33
2022-11-30T16:05:23.932Z,22.27
2022-11-30T16:07:55.470Z,24.17
2022-11-30T16:10:25.791Z,16.00
2022-11-30T16:12:55.553Z,18.17
2022-11-30T16:15:26.022Z,18.95
2022-11-30T16:17:57.032Z,22.67
2022-11-30T16:20:26.380Z,20.33
2022-11-30T16:22:54.241Z,29.40
2022-11-30T16:25:24.904Z,27.00
2022-11-30T16:27:53.238Z,32.65
2022-11-30T16:30:23.301Z,21.30
2022-11-30T16:32:51.644Z,19.85
2022-11-30T16:35:23.201Z,23.27
2022-11-30T16:37:53.022Z,16.38
2022-11-30T16:40:21.346Z,16.08
2022-11-30T16:42:50.644Z,11.60
2022-11-30T16:45:21.293Z,22.52
2022-11-30T16:47:49.361Z,12.43
2022-11-30T16:50:17.768Z,13.98
2022-11-30T16:52:46.086Z,14.23
2022-11-30T16:55:16.716Z,9.52
2022-11-30T16:57:45.634Z,16.17
2022-11-30T17:00:16.654Z,10.98
2022-11-30T17:02:49.608Z,11.40
2022-11-30T17:05:17.790Z,11.98
2022-11-30T17:07:45.734Z,18.33
2022-11-30T17:10:15.172Z,18.08
2022-11-30T17:12:43.054Z,14.75
2022-11-30T17:15:15.628Z,14.77
2022-11-30T17:17:43.782Z,20.92
2022-11-30T17:20:13.032Z,14.55
2022-11-30T17:22:41.244Z,13.60
2022-11-30T17:25:14.082Z,13.43
2022-11-30T17:27:43.634Z,17.77
2022-11-30T17:30:12.636Z,14.68
2022-11-30T17:32:40.587Z,8.65
2022-11-30T17:35:09.310Z,12.45
2022-11-30T17:37:37.231Z,13.93
2022-11-30T17:40:07.024Z,8.82
2022-11-30T17:42:35.370Z,8.70
2022-11-30T17:45:05.121Z,11.10
2022-11-30T17:47:33.133Z,9.50
2022-11-30T17:50:01.337Z,14.43
2022-11-30T17:52:29.179Z,16.45
2022-11-30T17:54:57.008Z,15.70
2022-11-30T17:57:24.868Z,19.48
2022-11-30T17:59:52.696Z,16.58
2022-11-30T18:02:21.946Z,15.98
2022-11-30T18:04:50.563Z,18.02
2022-11-30T18:07:20.039Z,22.20
2022-11-30T18:09:49.411Z,17.50
2022-11-30T18:12:17.264Z,19.92
2022-11-30T18:14:46.279Z,32.10
2022-11-30T18:17:14.492Z,25.13
2022-11-30T18:19:43.730Z,22.65
2022-11-30T18:22:11.518Z,21.95
2022-11-30T18:24:39.390Z,30.45
2022-11-30T18:27:07.188Z,21.95
2022-11-30T18:29:34.972Z,21.42
2022-11-30T18:32:02.837Z,23.25
2022-11-30T18:34:30.580Z,18.85
2022-11-30T18:37:04.101Z,22.17
2022-11-30T18:39:32.017Z,33.95
2022-11-30T18:41:59.865Z,34.55
2022-11-30T18:44:27.620Z,40.55
2022-11-30T18:46:55.455Z,25.08
2022-11-30T18:49:23.711Z,44.45
2022-11-30T18:51:51.517Z,34.67
2022-11-30T18:54:20.759Z,48.20
2022-11-30T18:56:48.493Z,27.42
2022-11-30T18:59:16.616Z,25.20
2022-11-30T19:01:44.472Z,26.65
2022-11-30T19:04:12.694Z,19.88
2022-11-30T19:06:42.718Z,27.30
2022-11-30T19:09:13.595Z,36.38
2022-11-30T19:11:44.055Z,28.90
2022-11-30T19:14:14.503Z,35.10
2022-11-30T19:16:42.748Z,41.63
2022-11-30T19:19:13.845Z,46.35
2022-11-30T19:21:43.714Z,39.47
2022-11-30T19:24:11.573Z,20.92
2022-11-30T19:26:40.158Z,24.00
2022-11-30T19:29:11.730Z,26.30
2022-11-30T19:31:39.679Z,38.38
2022-11-30T19:34:12.634Z,40.80
2022-11-30T19:36:41.633Z,27.83
2022-11-30T19:39:11.581Z,22.17
2022-11-30T19:41:39.367Z,25.75
2022-11-30T19:44:07.272Z,22.63
2022-11-30T19:46:36.557Z,34.83
2022-11-30T19:49:04.650Z,35.65
2022-11-30T19:51:32.828Z,38.60
2022-11-30T19:54:01.894Z,30.60
2022-11-30T19:56:31.210Z,27.13
2022-11-30T19:59:04.692Z,28.92
2022-11-30T20:01:34.053Z,41.25
2022-11-30T20:04:04.152Z,39.10
2022-11-30T20:06:35.692Z,20.83
2022-11-30T20:09:04.242Z,36.72
2022-11-30T20:11:32.735Z,18.55
2022-11-30T20:14:00.786Z,32.55
2022-11-30T20:16:29.361Z,21.30
2022-11-30T20:19:00.610Z,21.23
2022-11-30T20:21:32.228Z,27.48
2022-11-30T20:24:02.039Z,20.55
2022-11-30T20:26:31.696Z,29.75
2022-11-30T20:29:01.404Z,24.73
2022-11-30T20:31:30.248Z,49.80
2022-11-30T20:33:58.189Z,23.83
2022-11-30T20:36:26.122Z,28.25
2022-11-30T20:38:55.741Z,33.58
2022-11-30T20:41:25.522Z,28.20
2022-11-30T20:43:54.100Z,21.08
2022-11-30T20:46:23.686Z,28.77
2022-11-30T20:48:52.909Z,32.80
2022-11-30T20:51:30.862Z,29.55
2022-11-30T20:54:02.544Z,21.45
2022-11-30T20:56:30.393Z,28.27
2022-11-30T20:59:01.746Z,35.85
2022-11-30T21:01:29.814Z,25.85
2022-11-30T21:03:59.449Z,23.63
2022-11-30T21:06:27.543Z,26.27
2022-11-30T21:08:55.332Z,29.67
2022-11-30T21:11:24.763Z,25.77
2022-11-30T21:13:52.731Z,26.13
2022-11-30T21:16:27.649Z,17.30
2022-11-30T21:18:57.899Z,30.98
2022-11-30T21:21:27.331Z,32.28
2022-11-30T21:23:55.336Z,34.28
2022-11-30T21:26:26.466Z,34.00
2022-11-30T21:28:56.720Z,40.72
2022-11-30T21:31:24.813Z,36.97
2022-11-30T21:33:53.943Z,29.90
2022-11-30T21:36:23.561Z,21.13
2022-11-30T21:39:01.056Z,26.10
2022-11-30T21:41:34.642Z,40.53
2022-11-30T21:44:03.149Z,33.90
2022-11-30T21:46:31.165Z,51.78
2022-11-30T21:48:59.277Z,27.45
2022-11-30T21:51:29.042Z,28.63
2022-11-30T21:53:58.794Z,41.25
2022-11-30T21:56:28.543Z,24.33
2022-11-30T21:58:58.472Z,21.48
2022-11-30T22:01:29.145Z,21.33
2022-11-30T22:03:58.960Z,22.77
2022-11-30T22:06:29.746Z,24.30
2022-11-30T22:09:03.329Z,19.95
2022-11-30T22:11:32.095Z,28.65
2022-11-30T22:14:01.569Z,21.63
2022-11-30T22:16:35.665Z,26.35
2022-11-30T22:19:04.764Z,23.15
2022-11-30T22:21:33.348Z,17.17
2022-11-30T22:24:03.339Z,17.42
2022-11-30T22:26:32.398Z,18.20
2022-11-30T22:29:03.447Z,18.73
2022-11-30T22:31:33.403Z,14.25
2022-11-30T22:34:01.563Z,21.25
2022-11-30T22:36:30.927Z,17.83
2022-11-30T22:39:00.600Z,19.20
2022-11-30T22:41:29.569Z,21.20
2022-11-30T22:43:58.075Z,19.30
2022-11-30T22:46:29.100Z,16.42
2022-11-30T22:48:59.402Z,16.02
2022-11-30T22:51:29.345Z,16.58
2022-11-30T22:53:57.845Z,17.85
2022-11-30T22:56:28.558Z,15.93
2022-11-30T22:58:58.920Z,19.70
2022-11-30T23:01:30.449Z,21.58
2022-11-30T23:04:03.168Z,18.00
2022-11-30T23:06:31.109Z,16.25
2022-11-30T23:08:59.437Z,21.83
2022-11-30T23:11:28.270Z,20.95
2022-11-30T23:13:56.366Z,19.40
2022-11-30T23:16:24.316Z,17.60
2022-11-30T23:18:57.019Z,17.98
2022-11-30T23:21:26.749Z,13.80
2022-11-30T23:23:57.876Z,17.42
2022-11-30T23:26:27.956Z,24.20
2022-11-30T23:28:59.142Z,27.00
2022-11-30T23:31:33.751Z,20.83
2022-11-30T23:34:06.027Z,17.67
2022-11-30T23:36:34.628Z,19.20
2022-11-30T23:39:05.224Z,26.30
2022-11-30T23:41:34.067Z,20.13
2022-11-30T23:44:02.377Z,19.40
2022-11-30T23:46:30.307Z,15.88
2022-11-30T23:48:58.418Z,20.33
2022-11-30T23:51:28.112Z,23.58
2022-11-30T23:53:56.456Z,20.25
2022-11-30T23:56:24.821Z,25.15
2022-11-30T23:58:53.242Z,18.50
